sensor_id;sensor_type;location;lat;lon;timestamp;P1;durP1;ratioP1;P2;durP2;ratioP2
47790;SDS011;33547;49.044;1.156;2022-07-29T00:00:43;0.80;;;0.80;;
47790;SDS011;33547;49.044;1.156;2022-07-29T00:03:10;0.77;;;0.75;;
47790;SDS011;33547;49.044;1.156;2022-07-29T00:05:39;0.90;;;0.90;;
47790;SDS011;33547;49.044;1.156;2022-07-29T00:08:07;1.17;;;0.95;;
47790;SDS011;33547;49.044;1.156;2022-07-29T00:10:33;0.80;;;0.70;;
47790;SDS011;33547;49.044;1.156;2022-07-29T00:13:00;0.75;;;0.75;;
47790;SDS011;33547;49.044;1.156;2022-07-29T00:15:26;1.13;;;0.80;;
47790;SDS011;33547;49.044;1.156;2022-07-29T00:17:52;0.90;;;0.77;;
47790;SDS011;33547;49.044;1.156;2022-07-29T00:20:18;0.90;;;0.80;;
47790;SDS011;33547;49.044;1.156;2022-07-29T00:22:44;1.00;;;1.00;;
47790;SDS011;33547;49.044;1.156;2022-07-29T00:25:09;1.30;;;0.82;;
47790;SDS011;33547;49.044;1.156;2022-07-29T00:27:37;0.60;;;0.60;;
47790;SDS011;33547;49.044;1.156;2022-07-29T00:30:04;1.13;;;0.82;;
47790;SDS011;33547;49.044;1.156;2022-07-29T00:32:30;1.38;;;0.73;;
47790;SDS011;33547;49.044;1.156;2022-07-29T00:34:56;0.60;;;0.60;;
47790;SDS011;33547;49.044;1.156;2022-07-29T00:37:40;0.70;;;0.70;;
47790;SDS011;33547;49.044;1.156;2022-07-29T00:40:06;0.82;;;0.82;;
47790;SDS011;33547;49.044;1.156;2022-07-29T00:42:46;0.95;;;0.95;;
47790;SDS011;33547;49.044;1.156;2022-07-29T00:45:14;1.10;;;1.00;;
47790;SDS011;33547;49.044;1.156;2022-07-29T00:47:42;1.10;;;0.88;;
47790;SDS011;33547;49.044;1.156;2022-07-29T00:50:08;1.00;;;0.80;;
47790;SDS011;33547;49.044;1.156;2022-07-29T00:52:37;0.88;;;0.80;;
47790;SDS011;33547;49.044;1.156;2022-07-29T00:55:06;1.23;;;0.90;;
47790;SDS011;33547;49.044;1.156;2022-07-29T00:57:35;1.05;;;0.80;;
47790;SDS011;33547;49.044;1.156;2022-07-29T01:00:05;1.02;;;0.98;;
47790;SDS011;33547;49.044;1.156;2022-07-29T01:02:33;1.17;;;0.80;;
47790;SDS011;33547;49.044;1.156;2022-07-29T01:05:00;1.45;;;1.08;;
47790;SDS011;33547;49.044;1.156;2022-07-29T01:07:27;1.00;;;0.90;;
47790;SDS011;33547;49.044;1.156;2022-07-29T01:09:55;1.10;;;1.00;;
47790;SDS011;33547;49.044;1.156;2022-07-29T01:12:26;0.80;;;0.80;;
47790;SDS011;33547;49.044;1.156;2022-07-29T01:14:54;1.10;;;0.70;;
47790;SDS011;33547;49.044;1.156;2022-07-29T01:17:25;1.23;;;0.80;;
47790;SDS011;33547;49.044;1.156;2022-07-29T01:28:58;1.08;;;0.95;;
47790;SDS011;33547;49.044;1.156;2022-07-29T01:32:01;0.88;;;0.88;;
47790;SDS011;33547;49.044;1.156;2022-07-29T01:34:38;0.80;;;0.80;;
47790;SDS011;33547;49.044;1.156;2022-07-29T01:37:15;0.77;;;0.73;;
47790;SDS011;33547;49.044;1.156;2022-07-29T01:39:55;1.58;;;1.00;;
47790;SDS011;33547;49.044;1.156;2022-07-29T01:42:26;1.02;;;0.88;;
47790;SDS011;33547;49.044;1.156;2022-07-29T01:45:12;1.00;;;0.80;;
47790;SDS011;33547;49.044;1.156;2022-07-29T01:48:05;1.50;;;0.80;;
47790;SDS011;33547;49.044;1.156;2022-07-29T01:50:46;0.77;;;0.77;;
47790;SDS011;33547;49.044;1.156;2022-07-29T01:53:22;1.15;;;0.93;;
47790;SDS011;33547;49.044;1.156;2022-07-29T01:55:55;0.80;;;0.80;;
47790;SDS011;33547;49.044;1.156;2022-07-29T01:58:24;0.70;;;0.70;;
47790;SDS011;33547;49.044;1.156;2022-07-29T02:00:53;1.10;;;1.10;;
47790;SDS011;33547;49.044;1.156;2022-07-29T02:03:21;1.05;;;1.05;;
47790;SDS011;33547;49.044;1.156;2022-07-29T02:05:48;0.80;;;0.80;;
47790;SDS011;33547;49.044;1.156;2022-07-29T02:08:16;0.80;;;0.80;;
47790;SDS011;33547;49.044;1.156;2022-07-29T02:10:44;0.88;;;0.88;;
47790;SDS011;33547;49.044;1.156;2022-07-29T02:13:12;1.77;;;0.80;;
47790;SDS011;33547;49.044;1.156;2022-07-29T02:15:41;0.77;;;0.77;;
47790;SDS011;33547;49.044;1.156;2022-07-29T02:18:17;1.10;;;0.82;;
47790;SDS011;33547;49.044;1.156;2022-07-29T02:20:44;0.98;;;0.90;;
47790;SDS011;33547;49.044;1.156;2022-07-29T02:23:14;0.93;;;0.93;;
47790;SDS011;33547;49.044;1.156;2022-07-29T02:25:48;0.77;;;0.77;;
47790;SDS011;33547;49.044;1.156;2022-07-29T02:28:19;1.00;;;0.70;;
47790;SDS011;33547;49.044;1.156;2022-07-29T02:30:47;1.08;;;1.08;;
47790;SDS011;33547;49.044;1.156;2022-07-29T02:33:15;1.52;;;0.68;;
47790;SDS011;33547;49.044;1.156;2022-07-29T02:35:44;0.80;;;0.80;;
47790;SDS011;33547;49.044;1.156;2022-07-29T02:38:12;0.93;;;0.90;;
47790;SDS011;33547;49.044;1.156;2022-07-29T02:41:09;0.95;;;0.95;;
47790;SDS011;33547;49.044;1.156;2022-07-29T02:43:37;0.80;;;0.80;;
47790;SDS011;33547;49.044;1.156;2022-07-29T02:46:08;0.90;;;0.82;;
47790;SDS011;33547;49.044;1.156;2022-07-29T02:49:27;0.70;;;0.70;;
47790;SDS011;33547;49.044;1.156;2022-07-29T02:51:43;1.05;;;0.95;;
47790;SDS011;33547;49.044;1.156;2022-07-29T02:55:01;0.95;;;0.90;;
47790;SDS011;33547;49.044;1.156;2022-07-29T03:00:07;0.98;;;0.90;;
47790;SDS011;33547;49.044;1.156;2022-07-29T03:02:42;0.70;;;0.70;;
47790;SDS011;33547;49.044;1.156;2022-07-29T03:05:11;0.82;;;0.82;;
47790;SDS011;33547;49.044;1.156;2022-07-29T03:07:48;1.20;;;1.10;;
47790;SDS011;33547;49.044;1.156;2022-07-29T03:10:20;1.15;;;1.08;;
47790;SDS011;33547;49.044;1.156;2022-07-29T03:12:47;1.20;;;1.00;;
47790;SDS011;33547;49.044;1.156;2022-07-29T03:15:13;1.10;;;1.00;;
47790;SDS011;33547;49.044;1.156;2022-07-29T03:17:39;0.70;;;0.70;;
47790;SDS011;33547;49.044;1.156;2022-07-29T03:20:08;1.10;;;0.95;;
47790;SDS011;33547;49.044;1.156;2022-07-29T03:22:39;0.93;;;0.80;;
47790;SDS011;33547;49.044;1.156;2022-07-29T03:25:12;0.80;;;0.80;;
47790;SDS011;33547;49.044;1.156;2022-07-29T03:27:40;1.30;;;0.80;;
47790;SDS011;33547;49.044;1.156;2022-07-29T03:30:07;0.70;;;0.70;;
47790;SDS011;33547;49.044;1.156;2022-07-29T03:32:34;0.73;;;0.73;;
47790;SDS011;33547;49.044;1.156;2022-07-29T03:35:00;2.50;;;1.08;;
47790;SDS011;33547;49.044;1.156;2022-07-29T03:37:27;1.13;;;0.90;;
47790;SDS011;33547;49.044;1.156;2022-07-29T03:39:54;1.27;;;0.80;;
47790;SDS011;33547;49.044;1.156;2022-07-29T03:42:23;1.13;;;0.80;;
47790;SDS011;33547;49.044;1.156;2022-07-29T03:44:54;0.80;;;0.80;;
47790;SDS011;33547;49.044;1.156;2022-07-29T03:47:23;0.80;;;0.80;;
47790;SDS011;33547;49.044;1.156;2022-07-29T03:49:53;0.90;;;0.85;;
47790;SDS011;33547;49.044;1.156;2022-07-29T03:52:25;1.35;;;0.90;;
47790;SDS011;33547;49.044;1.156;2022-07-29T03:54:51;1.48;;;0.95;;
47790;SDS011;33547;49.044;1.156;2022-07-29T03:57:18;0.73;;;0.73;;
47790;SDS011;33547;49.044;1.156;2022-07-29T03:59:48;0.80;;;0.80;;
47790;SDS011;33547;49.044;1.156;2022-07-29T04:02:19;1.50;;;1.13;;
47790;SDS011;33547;49.044;1.156;2022-07-29T04:04:45;1.48;;;0.90;;
47790;SDS011;33547;49.044;1.156;2022-07-29T04:07:12;0.80;;;0.80;;
47790;SDS011;33547;49.044;1.156;2022-07-29T04:09:40;1.35;;;1.17;;
47790;SDS011;33547;49.044;1.156;2022-07-29T04:12:07;1.48;;;1.00;;
47790;SDS011;33547;49.044;1.156;2022-07-29T04:14:33;0.90;;;0.88;;
47790;SDS011;33547;49.044;1.156;2022-07-29T04:17:03;1.58;;;1.40;;
47790;SDS011;33547;49.044;1.156;2022-07-29T04:19:30;0.85;;;0.80;;
47790;SDS011;33547;49.044;1.156;2022-07-29T04:21:57;1.33;;;0.88;;
47790;SDS011;33547;49.044;1.156;2022-07-29T04:24:24;1.55;;;1.00;;
47790;SDS011;33547;49.044;1.156;2022-07-29T04:26:51;1.65;;;0.90;;
47790;SDS011;33547;49.044;1.156;2022-07-29T04:29:17;1.33;;;0.95;;
47790;SDS011;33547;49.044;1.156;2022-07-29T04:31:43;0.95;;;0.95;;
47790;SDS011;33547;49.044;1.156;2022-07-29T04:34:09;1.02;;;0.85;;
47790;SDS011;33547;49.044;1.156;2022-07-29T04:36:36;0.82;;;0.82;;
47790;SDS011;33547;49.044;1.156;2022-07-29T04:39:02;0.90;;;0.90;;
47790;SDS011;33547;49.044;1.156;2022-07-29T04:41:28;1.02;;;1.00;;
47790;SDS011;33547;49.044;1.156;2022-07-29T04:43:55;0.93;;;0.93;;
47790;SDS011;33547;49.044;1.156;2022-07-29T04:46:21;0.88;;;0.88;;
47790;SDS011;33547;49.044;1.156;2022-07-29T04:48:47;1.00;;;0.90;;
47790;SDS011;33547;49.044;1.156;2022-07-29T04:51:14;0.90;;;0.90;;
47790;SDS011;33547;49.044;1.156;2022-07-29T04:53:40;1.20;;;1.00;;
47790;SDS011;33547;49.044;1.156;2022-07-29T04:56:06;0.60;;;0.60;;
47790;SDS011;33547;49.044;1.156;2022-07-29T04:58:33;0.95;;;0.95;;
47790;SDS011;33547;49.044;1.156;2022-07-29T05:01:00;0.88;;;0.88;;
47790;SDS011;33547;49.044;1.156;2022-07-29T05:03:26;0.82;;;0.82;;
47790;SDS011;33547;49.044;1.156;2022-07-29T05:05:52;0.80;;;0.70;;
47790;SDS011;33547;49.044;1.156;2022-07-29T05:08:18;1.05;;;1.05;;
47790;SDS011;33547;49.044;1.156;2022-07-29T05:10:44;0.95;;;0.95;;
47790;SDS011;33547;49.044;1.156;2022-07-29T05:13:10;0.80;;;0.80;;
47790;SDS011;33547;49.044;1.156;2022-07-29T05:15:36;0.93;;;0.90;;
47790;SDS011;33547;49.044;1.156;2022-07-29T05:18:02;0.70;;;0.70;;
47790;SDS011;33547;49.044;1.156;2022-07-29T05:20:29;1.27;;;0.90;;
47790;SDS011;33547;49.044;1.156;2022-07-29T05:22:56;1.02;;;1.00;;
47790;SDS011;33547;49.044;1.156;2022-07-29T05:25:24;1.27;;;1.10;;
47790;SDS011;33547;49.044;1.156;2022-07-29T05:27:54;1.33;;;0.80;;
47790;SDS011;33547;49.044;1.156;2022-07-29T05:30:21;1.20;;;1.10;;
47790;SDS011;33547;49.044;1.156;2022-07-29T05:32:47;0.82;;;0.82;;
47790;SDS011;33547;49.044;1.156;2022-07-29T05:35:13;1.33;;;0.90;;
47790;SDS011;33547;49.044;1.156;2022-07-29T05:37:40;1.08;;;1.00;;
47790;SDS011;33547;49.044;1.156;2022-07-29T05:40:06;0.90;;;0.90;;
47790;SDS011;33547;49.044;1.156;2022-07-29T05:42:33;0.90;;;0.90;;
47790;SDS011;33547;49.044;1.156;2022-07-29T05:45:00;1.30;;;1.08;;
47790;SDS011;33547;49.044;1.156;2022-07-29T05:47:26;0.70;;;0.70;;
47790;SDS011;33547;49.044;1.156;2022-07-29T05:49:52;1.23;;;0.90;;
47790;SDS011;33547;49.044;1.156;2022-07-29T05:52:19;1.20;;;0.80;;
47790;SDS011;33547;49.044;1.156;2022-07-29T05:54:45;0.88;;;0.88;;
47790;SDS011;33547;49.044;1.156;2022-07-29T05:57:15;0.98;;;0.82;;
47790;SDS011;33547;49.044;1.156;2022-07-29T05:59:46;0.90;;;0.90;;
47790;SDS011;33547;49.044;1.156;2022-07-29T06:02:13;1.88;;;1.20;;
47790;SDS011;33547;49.044;1.156;2022-07-29T06:04:39;2.38;;;1.38;;
47790;SDS011;33547;49.044;1.156;2022-07-29T06:07:05;0.85;;;0.85;;
47790;SDS011;33547;49.044;1.156;2022-07-29T06:09:31;0.70;;;0.70;;
47790;SDS011;33547;49.044;1.156;2022-07-29T06:11:58;1.25;;;0.80;;
47790;SDS011;33547;49.044;1.156;2022-07-29T06:14:24;1.10;;;1.00;;
47790;SDS011;33547;49.044;1.156;2022-07-29T06:16:51;1.13;;;0.95;;
47790;SDS011;33547;49.044;1.156;2022-07-29T06:19:18;1.08;;;1.00;;
47790;SDS011;33547;49.044;1.156;2022-07-29T06:21:44;0.82;;;0.82;;
47790;SDS011;33547;49.044;1.156;2022-07-29T06:24:11;1.20;;;1.10;;
47790;SDS011;33547;49.044;1.156;2022-07-29T06:26:39;1.75;;;1.08;;
47790;SDS011;33547;49.044;1.156;2022-07-29T06:29:08;0.98;;;0.90;;
47790;SDS011;33547;49.044;1.156;2022-07-29T06:31:36;1.85;;;0.85;;
47790;SDS011;33547;49.044;1.156;2022-07-29T06:34:02;2.60;;;1.30;;
47790;SDS011;33547;49.044;1.156;2022-07-29T06:36:29;1.83;;;1.27;;
47790;SDS011;33547;49.044;1.156;2022-07-29T06:38:55;1.33;;;1.25;;
47790;SDS011;33547;49.044;1.156;2022-07-29T06:41:21;1.42;;;1.30;;
47790;SDS011;33547;49.044;1.156;2022-07-29T06:43:47;2.80;;;1.20;;
47790;SDS011;33547;49.044;1.156;2022-07-29T06:46:16;2.13;;;1.40;;
47790;SDS011;33547;49.044;1.156;2022-07-29T06:48:43;2.13;;;0.93;;
47790;SDS011;33547;49.044;1.156;2022-07-29T06:51:12;3.67;;;1.40;;
47790;SDS011;33547;49.044;1.156;2022-07-29T06:53:38;2.45;;;1.13;;
47790;SDS011;33547;49.044;1.156;2022-07-29T06:56:05;0.88;;;0.85;;
47790;SDS011;33547;49.044;1.156;2022-07-29T06:58:37;2.35;;;1.20;;
47790;SDS011;33547;49.044;1.156;2022-07-29T07:01:03;1.48;;;1.20;;
47790;SDS011;33547;49.044;1.156;2022-07-29T07:03:31;1.30;;;1.20;;
47790;SDS011;33547;49.044;1.156;2022-07-29T07:05:57;1.70;;;1.38;;
47790;SDS011;33547;49.044;1.156;2022-07-29T07:08:23;2.10;;;1.30;;
47790;SDS011;33547;49.044;1.156;2022-07-29T07:10:50;1.52;;;1.20;;
47790;SDS011;33547;49.044;1.156;2022-07-29T07:13:16;3.05;;;1.75;;
47790;SDS011;33547;49.044;1.156;2022-07-29T07:15:43;2.70;;;1.70;;
47790;SDS011;33547;49.044;1.156;2022-07-29T07:18:10;3.35;;;1.95;;
47790;SDS011;33547;49.044;1.156;2022-07-29T07:20:36;9.20;;;1.77;;
47790;SDS011;33547;49.044;1.156;2022-07-29T07:23:01;2.28;;;1.48;;
47790;SDS011;33547;49.044;1.156;2022-07-29T07:25:27;3.35;;;1.48;;
47790;SDS011;33547;49.044;1.156;2022-07-29T07:27:53;3.45;;;1.60;;
47790;SDS011;33547;49.044;1.156;2022-07-29T07:30:19;4.60;;;1.85;;
47790;SDS011;33547;49.044;1.156;2022-07-29T07:32:45;5.18;;;1.83;;
47790;SDS011;33547;49.044;1.156;2022-07-29T07:35:11;4.30;;;2.00;;
47790;SDS011;33547;49.044;1.156;2022-07-29T07:37:38;6.93;;;2.03;;
47790;SDS011;33547;49.044;1.156;2022-07-29T07:40:05;6.05;;;2.05;;
47790;SDS011;33547;49.044;1.156;2022-07-29T07:42:33;11.05;;;2.85;;
47790;SDS011;33547;49.044;1.156;2022-07-29T07:44:59;11.07;;;1.85;;
47790;SDS011;33547;49.044;1.156;2022-07-29T07:47:25;8.43;;;1.85;;
47790;SDS011;33547;49.044;1.156;2022-07-29T07:49:51;4.47;;;1.77;;
47790;SDS011;33547;49.044;1.156;2022-07-29T07:52:18;8.20;;;2.40;;
47790;SDS011;33547;49.044;1.156;2022-07-29T07:54:46;6.82;;;2.15;;
47790;SDS011;33547;49.044;1.156;2022-07-29T07:57:12;4.03;;;1.70;;
47790;SDS011;33547;49.044;1.156;2022-07-29T07:59:39;4.07;;;1.60;;
47790;SDS011;33547;49.044;1.156;2022-07-29T08:02:05;6.80;;;1.80;;
47790;SDS011;33547;49.044;1.156;2022-07-29T08:04:32;7.43;;;2.13;;
47790;SDS011;33547;49.044;1.156;2022-07-29T08:06:59;4.50;;;1.38;;
47790;SDS011;33547;49.044;1.156;2022-07-29T08:09:26;6.63;;;1.67;;
47790;SDS011;33547;49.044;1.156;2022-07-29T08:11:53;3.80;;;1.75;;
47790;SDS011;33547;49.044;1.156;2022-07-29T08:14:20;2.47;;;1.40;;
47790;SDS011;33547;49.044;1.156;2022-07-29T08:16:46;4.93;;;1.75;;
47790;SDS011;33547;49.044;1.156;2022-07-29T08:19:12;4.60;;;1.95;;
47790;SDS011;33547;49.044;1.156;2022-07-29T08:21:38;4.25;;;1.83;;
47790;SDS011;33547;49.044;1.156;2022-07-29T08:24:23;4.80;;;1.55;;
47790;SDS011;33547;49.044;1.156;2022-07-29T08:27:08;3.85;;;1.60;;
47790;SDS011;33547;49.044;1.156;2022-07-29T08:29:35;3.78;;;1.55;;
47790;SDS011;33547;49.044;1.156;2022-07-29T08:32:02;3.80;;;1.20;;
47790;SDS011;33547;49.044;1.156;2022-07-29T08:34:29;3.42;;;1.23;;
47790;SDS011;33547;49.044;1.156;2022-07-29T08:36:55;4.30;;;1.40;;
47790;SDS011;33547;49.044;1.156;2022-07-29T08:39:22;6.10;;;1.60;;
47790;SDS011;33547;49.044;1.156;2022-07-29T08:41:49;4.28;;;1.40;;
47790;SDS011;33547;49.044;1.156;2022-07-29T08:44:17;5.65;;;2.35;;
47790;SDS011;33547;49.044;1.156;2022-07-29T08:46:43;5.10;;;1.33;;
47790;SDS011;33547;49.044;1.156;2022-07-29T08:49:10;10.52;;;1.65;;
47790;SDS011;33547;49.044;1.156;2022-07-29T08:51:36;3.53;;;1.17;;
47790;SDS011;33547;49.044;1.156;2022-07-29T08:54:05;4.55;;;1.20;;
47790;SDS011;33547;49.044;1.156;2022-07-29T08:56:33;4.40;;;1.38;;
47790;SDS011;33547;49.044;1.156;2022-07-29T08:59:02;5.68;;;1.48;;
47790;SDS011;33547;49.044;1.156;2022-07-29T09:01:30;3.00;;;1.58;;
47790;SDS011;33547;49.044;1.156;2022-07-29T09:03:59;2.90;;;1.45;;
47790;SDS011;33547;49.044;1.156;2022-07-29T09:06:29;3.85;;;1.00;;
47790;SDS011;33547;49.044;1.156;2022-07-29T09:08:58;8.43;;;1.58;;
47790;SDS011;33547;49.044;1.156;2022-07-29T09:11:25;2.90;;;1.20;;
47790;SDS011;33547;49.044;1.156;2022-07-29T09:13:51;3.40;;;1.00;;
47790;SDS011;33547;49.044;1.156;2022-07-29T09:16:17;1.27;;;0.70;;
47790;SDS011;33547;49.044;1.156;2022-07-29T09:18:44;3.67;;;0.95;;
47790;SDS011;33547;49.044;1.156;2022-07-29T09:21:15;1.85;;;0.80;;
47790;SDS011;33547;49.044;1.156;2022-07-29T09:24:05;3.55;;;1.13;;
47790;SDS011;33547;49.044;1.156;2022-07-29T09:26:39;5.78;;;1.05;;
47790;SDS011;33547;49.044;1.156;2022-07-29T09:31:40;3.55;;;0.93;;
47790;SDS011;33547;49.044;1.156;2022-07-29T09:34:09;2.78;;;0.80;;
47790;SDS011;33547;49.044;1.156;2022-07-29T09:36:40;3.50;;;0.85;;
47790;SDS011;33547;49.044;1.156;2022-07-29T09:39:14;6.95;;;1.00;;
47790;SDS011;33547;49.044;1.156;2022-07-29T09:41:53;2.50;;;0.90;;
47790;SDS011;33547;49.044;1.156;2022-07-29T09:44:21;3.65;;;1.17;;
47790;SDS011;33547;49.044;1.156;2022-07-29T09:46:55;3.65;;;1.27;;
47790;SDS011;33547;49.044;1.156;2022-07-29T09:49:52;5.60;;;1.40;;
47790;SDS011;33547;49.044;1.156;2022-07-29T09:52:29;4.43;;;1.10;;
47790;SDS011;33547;49.044;1.156;2022-07-29T09:55:08;2.13;;;1.20;;
47790;SDS011;33547;49.044;1.156;2022-07-29T09:57:35;2.33;;;1.00;;
47790;SDS011;33547;49.044;1.156;2022-07-29T10:02:53;15.60;;;2.78;;
47790;SDS011;33547;49.044;1.156;2022-07-29T10:05:26;10.35;;;1.90;;
47790;SDS011;33547;49.044;1.156;2022-07-29T10:07:56;4.18;;;1.20;;
47790;SDS011;33547;49.044;1.156;2022-07-29T10:10:30;4.75;;;1.38;;
47790;SDS011;33547;49.044;1.156;2022-07-29T10:13:01;4.85;;;1.23;;
47790;SDS011;33547;49.044;1.156;2022-07-29T10:15:30;4.10;;;1.60;;
47790;SDS011;33547;49.044;1.156;2022-07-29T10:18:03;4.53;;;1.60;;
47790;SDS011;33547;49.044;1.156;2022-07-29T10:20:30;4.57;;;1.15;;
47790;SDS011;33547;49.044;1.156;2022-07-29T10:22:56;6.38;;;1.10;;
47790;SDS011;33547;49.044;1.156;2022-07-29T10:25:22;2.97;;;1.17;;
47790;SDS011;33547;49.044;1.156;2022-07-29T10:27:49;2.17;;;1.02;;
47790;SDS011;33547;49.044;1.156;2022-07-29T10:30:16;3.95;;;1.30;;
47790;SDS011;33547;49.044;1.156;2022-07-29T10:46:37;2.25;;;0.80;;
47790;SDS011;33547;49.044;1.156;2022-07-29T11:05:05;2.97;;;1.20;;
47790;SDS011;33547;49.044;1.156;2022-07-29T11:08:27;3.58;;;1.15;;
47790;SDS011;33547;49.044;1.156;2022-07-29T11:10:44;3.75;;;1.00;;
47790;SDS011;33547;49.044;1.156;2022-07-29T11:13:11;4.30;;;0.82;;
47790;SDS011;33547;49.044;1.156;2022-07-29T11:15:53;3.25;;;1.00;;
47790;SDS011;33547;49.044;1.156;2022-07-29T11:18:23;1.95;;;1.10;;
47790;SDS011;33547;49.044;1.156;2022-07-29T11:20:49;3.72;;;1.15;;
47790;SDS011;33547;49.044;1.156;2022-07-29T11:23:31;4.65;;;0.95;;
47790;SDS011;33547;49.044;1.156;2022-07-29T11:39:34;3.03;;;1.00;;
47790;SDS011;33547;49.044;1.156;2022-07-29T11:47:39;2.65;;;1.00;;
47790;SDS011;33547;49.044;1.156;2022-07-29T11:50:26;3.00;;;0.80;;
47790;SDS011;33547;49.044;1.156;2022-07-29T11:52:54;3.35;;;1.10;;
47790;SDS011;33547;49.044;1.156;2022-07-29T11:55:21;1.75;;;1.10;;
47790;SDS011;33547;49.044;1.156;2022-07-29T11:57:58;2.10;;;0.80;;
47790;SDS011;33547;49.044;1.156;2022-07-29T12:00:26;4.43;;;1.00;;
47790;SDS011;33547;49.044;1.156;2022-07-29T12:02:56;1.58;;;1.13;;
47790;SDS011;33547;49.044;1.156;2022-07-29T12:05:34;2.67;;;0.98;;
47790;SDS011;33547;49.044;1.156;2022-07-29T12:08:05;1.77;;;0.90;;
47790;SDS011;33547;49.044;1.156;2022-07-29T12:10:35;1.13;;;0.98;;
47790;SDS011;33547;49.044;1.156;2022-07-29T12:13:02;4.32;;;1.23;;
47790;SDS011;33547;49.044;1.156;2022-07-29T12:15:28;2.38;;;1.02;;
47790;SDS011;33547;49.044;1.156;2022-07-29T12:17:54;2.03;;;1.08;;
47790;SDS011;33547;49.044;1.156;2022-07-29T12:20:24;4.68;;;0.85;;
47790;SDS011;33547;49.044;1.156;2022-07-29T12:22:52;2.05;;;0.90;;
47790;SDS011;33547;49.044;1.156;2022-07-29T12:25:22;2.53;;;0.90;;
47790;SDS011;33547;49.044;1.156;2022-07-29T12:27:58;2.65;;;1.00;;
47790;SDS011;33547;49.044;1.156;2022-07-29T12:30:34;2.20;;;1.20;;
47790;SDS011;33547;49.044;1.156;2022-07-29T12:33:13;2.75;;;0.90;;
47790;SDS011;33547;49.044;1.156;2022-07-29T12:35:49;1.55;;;1.02;;
47790;SDS011;33547;49.044;1.156;2022-07-29T12:38:23;3.53;;;0.80;;
47790;SDS011;33547;49.044;1.156;2022-07-29T12:40:49;4.97;;;0.98;;
47790;SDS011;33547;49.044;1.156;2022-07-29T12:43:18;1.58;;;0.95;;
47790;SDS011;33547;49.044;1.156;2022-07-29T12:45:50;1.45;;;1.10;;
47790;SDS011;33547;49.044;1.156;2022-07-29T12:48:33;1.15;;;1.00;;
47790;SDS011;33547;49.044;1.156;2022-07-29T12:51:00;2.60;;;1.30;;
47790;SDS011;33547;49.044;1.156;2022-07-29T12:53:28;3.10;;;1.13;;
47790;SDS011;33547;49.044;1.156;2022-07-29T12:55:55;2.25;;;1.15;;
47790;SDS011;33547;49.044;1.156;2022-07-29T13:01:04;1.90;;;1.00;;
47790;SDS011;33547;49.044;1.156;2022-07-29T13:14:09;7.55;;;1.33;;
47790;SDS011;33547;49.044;1.156;2022-07-29T13:17:05;3.20;;;1.38;;
47790;SDS011;33547;49.044;1.156;2022-07-29T13:19:36;2.83;;;1.10;;
47790;SDS011;33547;49.044;1.156;2022-07-29T13:22:06;1.65;;;1.05;;
47790;SDS011;33547;49.044;1.156;2022-07-29T13:24:34;6.25;;;1.25;;
47790;SDS011;33547;49.044;1.156;2022-07-29T13:27:18;3.25;;;1.13;;
47790;SDS011;33547;49.044;1.156;2022-07-29T13:29:46;3.53;;;1.08;;
47790;SDS011;33547;49.044;1.156;2022-07-29T13:32:16;2.60;;;1.17;;
47790;SDS011;33547;49.044;1.156;2022-07-29T13:34:41;3.20;;;1.02;;
47790;SDS011;33547;49.044;1.156;2022-07-29T13:37:07;3.00;;;1.23;;
47790;SDS011;33547;49.044;1.156;2022-07-29T13:39:33;2.97;;;1.10;;
47790;SDS011;33547;49.044;1.156;2022-07-29T13:41:59;3.25;;;1.17;;
47790;SDS011;33547;49.044;1.156;2022-07-29T13:44:25;7.00;;;1.35;;
47790;SDS011;33547;49.044;1.156;2022-07-29T13:46:51;4.57;;;1.30;;
47790;SDS011;33547;49.044;1.156;2022-07-29T13:49:16;5.05;;;1.20;;
47790;SDS011;33547;49.044;1.156;2022-07-29T13:51:42;4.18;;;1.13;;
47790;SDS011;33547;49.044;1.156;2022-07-29T13:54:08;4.68;;;1.55;;
47790;SDS011;33547;49.044;1.156;2022-07-29T13:56:34;4.18;;;1.05;;
47790;SDS011;33547;49.044;1.156;2022-07-29T13:58:59;2.22;;;1.30;;
47790;SDS011;33547;49.044;1.156;2022-07-29T14:01:25;4.90;;;1.20;;
47790;SDS011;33547;49.044;1.156;2022-07-29T14:03:52;3.60;;;1.52;;
47790;SDS011;33547;49.044;1.156;2022-07-29T14:06:18;3.08;;;1.40;;
47790;SDS011;33547;49.044;1.156;2022-07-29T14:08:44;3.17;;;1.08;;
47790;SDS011;33547;49.044;1.156;2022-07-29T14:11:10;17.17;;;3.60;;
47790;SDS011;33547;49.044;1.156;2022-07-29T14:13:35;25.00;;;4.57;;
47790;SDS011;33547;49.044;1.156;2022-07-29T14:16:01;8.00;;;2.05;;
47790;SDS011;33547;49.044;1.156;2022-07-29T14:18:27;7.72;;;1.60;;
47790;SDS011;33547;49.044;1.156;2022-07-29T14:20:53;5.35;;;1.92;;
47790;SDS011;33547;49.044;1.156;2022-07-29T14:23:19;5.63;;;1.50;;
47790;SDS011;33547;49.044;1.156;2022-07-29T14:25:45;5.88;;;1.38;;
47790;SDS011;33547;49.044;1.156;2022-07-29T14:28:11;4.30;;;1.17;;
47790;SDS011;33547;49.044;1.156;2022-07-29T14:30:36;2.58;;;1.30;;
47790;SDS011;33547;49.044;1.156;2022-07-29T14:33:02;3.28;;;1.25;;
47790;SDS011;33547;49.044;1.156;2022-07-29T14:35:28;3.83;;;1.20;;
47790;SDS011;33547;49.044;1.156;2022-07-29T14:37:54;5.38;;;1.50;;
47790;SDS011;33547;49.044;1.156;2022-07-29T14:40:20;4.03;;;1.50;;
47790;SDS011;33547;49.044;1.156;2022-07-29T14:42:46;3.72;;;1.48;;
47790;SDS011;33547;49.044;1.156;2022-07-29T14:45:11;2.28;;;1.00;;
47790;SDS011;33547;49.044;1.156;2022-07-29T14:47:38;2.50;;;1.40;;
47790;SDS011;33547;49.044;1.156;2022-07-29T14:50:04;7.97;;;1.52;;
47790;SDS011;33547;49.044;1.156;2022-07-29T14:52:32;1.83;;;1.10;;
47790;SDS011;33547;49.044;1.156;2022-07-29T14:54:58;4.95;;;1.10;;
47790;SDS011;33547;49.044;1.156;2022-07-29T14:57:23;3.65;;;1.30;;
47790;SDS011;33547;49.044;1.156;2022-07-29T14:59:50;4.32;;;1.20;;
47790;SDS011;33547;49.044;1.156;2022-07-29T15:02:16;2.10;;;1.05;;
47790;SDS011;33547;49.044;1.156;2022-07-29T15:04:42;10.65;;;2.00;;
47790;SDS011;33547;49.044;1.156;2022-07-29T15:07:09;7.50;;;1.85;;
47790;SDS011;33547;49.044;1.156;2022-07-29T15:09:35;10.43;;;1.95;;
47790;SDS011;33547;49.044;1.156;2022-07-29T15:12:00;4.15;;;1.48;;
47790;SDS011;33547;49.044;1.156;2022-07-29T15:14:27;4.70;;;1.52;;
47790;SDS011;33547;49.044;1.156;2022-07-29T15:16:53;3.90;;;1.48;;
47790;SDS011;33547;49.044;1.156;2022-07-29T15:19:19;5.65;;;2.33;;
47790;SDS011;33547;49.044;1.156;2022-07-29T15:21:45;4.70;;;1.92;;
47790;SDS011;33547;49.044;1.156;2022-07-29T15:24:11;4.32;;;1.60;;
47790;SDS011;33547;49.044;1.156;2022-07-29T15:26:37;3.53;;;1.50;;
47790;SDS011;33547;49.044;1.156;2022-07-29T15:29:03;5.60;;;1.92;;
47790;SDS011;33547;49.044;1.156;2022-07-29T15:31:29;4.63;;;1.58;;
47790;SDS011;33547;49.044;1.156;2022-07-29T15:33:55;2.90;;;1.35;;
47790;SDS011;33547;49.044;1.156;2022-07-29T15:36:20;4.00;;;1.15;;
47790;SDS011;33547;49.044;1.156;2022-07-29T15:38:46;3.53;;;1.30;;
47790;SDS011;33547;49.044;1.156;2022-07-29T15:41:15;4.55;;;1.63;;
47790;SDS011;33547;49.044;1.156;2022-07-29T15:43:42;19.95;;;2.80;;
47790;SDS011;33547;49.044;1.156;2022-07-29T15:46:12;8.13;;;2.30;;
47790;SDS011;33547;49.044;1.156;2022-07-29T15:48:58;6.03;;;1.70;;
47790;SDS011;33547;49.044;1.156;2022-07-29T15:51:24;6.03;;;1.80;;
47790;SDS011;33547;49.044;1.156;2022-07-29T15:53:50;5.18;;;1.52;;
47790;SDS011;33547;49.044;1.156;2022-07-29T15:56:16;2.03;;;1.48;;
47790;SDS011;33547;49.044;1.156;2022-07-29T15:58:42;2.03;;;1.30;;
47790;SDS011;33547;49.044;1.156;2022-07-29T16:01:08;5.65;;;2.15;;
47790;SDS011;33547;49.044;1.156;2022-07-29T16:03:34;3.55;;;1.58;;
47790;SDS011;33547;49.044;1.156;2022-07-29T16:05:59;2.45;;;1.38;;
47790;SDS011;33547;49.044;1.156;2022-07-29T16:08:25;4.15;;;1.90;;
47790;SDS011;33547;49.044;1.156;2022-07-29T16:10:51;5.88;;;1.63;;
47790;SDS011;33547;49.044;1.156;2022-07-29T16:13:17;1.95;;;1.30;;
47790;SDS011;33547;49.044;1.156;2022-07-29T16:15:43;4.68;;;1.45;;
47790;SDS011;33547;49.044;1.156;2022-07-29T16:18:09;3.20;;;1.30;;